createdAt,value
2019-05-12T00:01:35.085Z,0.30
2019-05-12T00:04:42.384Z,0.30
2019-05-12T00:07:50.058Z,0.40
2019-05-12T00:10:58.245Z,0.30
2019-05-12T00:14:08.455Z,0.20
2019-05-12T00:17:15.100Z,0.40
2019-05-12T00:20:22.422Z,0.33
2019-05-12T00:23:31.202Z,0.20
2019-05-12T00:26:40.955Z,0.20
2019-05-12T00:29:48.640Z,0.20
2019-05-12T00:32:58.067Z,0.30
2019-05-12T00:36:05.372Z,0.30
2019-05-12T00:39:12.768Z,0.47
2019-05-12T00:42:20.650Z,0.30
2019-05-12T00:45:29.225Z,0.30
2019-05-12T00:48:37.568Z,0.40
2019-05-12T00:51:45.261Z,0.30
2019-05-12T00:54:52.831Z,0.30
2019-05-12T00:58:01.193Z,0.40
2019-05-12T01:01:08.492Z,0.53
2019-05-12T01:04:17.598Z,0.90
2019-05-12T01:07:25.079Z,1.10
2019-05-12T01:10:32.807Z,1.10
2019-05-12T01:13:40.301Z,1.60
2019-05-12T01:16:48.637Z,1.57
2019-05-12T01:19:58.420Z,1.63
2019-05-12T01:23:08.223Z,1.70
2019-05-12T01:26:14.910Z,1.90
2019-05-12T01:29:22.299Z,1.70
2019-05-12T01:32:34.286Z,1.57
2019-05-12T01:35:42.087Z,1.70
2019-05-12T01:38:49.591Z,2.10
2019-05-12T01:41:58.662Z,2.07
2019-05-12T01:45:09.205Z,1.50
2019-05-12T01:48:18.311Z,1.90
2019-05-12T01:51:28.326Z,1.60
2019-05-12T01:54:35.254Z,1.57
2019-05-12T01:57:42.421Z,1.40
2019-05-12T02:00:50.350Z,1.43
2019-05-12T02:04:02.746Z,1.47
2019-05-12T02:07:10.208Z,1.33
2019-05-12T02:10:18.614Z,1.20
2019-05-12T02:13:27.718Z,1.20
2019-05-12T02:16:35.173Z,1.00
2019-05-12T02:19:42.476Z,0.80
2019-05-12T02:22:50.637Z,0.67
2019-05-12T02:25:58.561Z,0.50
2019-05-12T02:29:07.854Z,0.70
2019-05-12T02:32:16.008Z,0.63
2019-05-12T02:35:24.757Z,0.53
2019-05-12T02:38:33.415Z,0.60
2019-05-12T02:41:41.081Z,0.70
2019-05-12T02:44:48.374Z,0.90
2019-05-12T02:47:55.735Z,0.60
2019-05-12T02:51:05.554Z,0.70
2019-05-12T02:54:14.520Z,0.70
2019-05-12T02:57:25.530Z,0.67
2019-05-12T03:00:35.562Z,0.80
2019-05-12T03:03:46.279Z,0.60
2019-05-12T03:06:55.698Z,0.80
2019-05-12T03:10:05.545Z,0.53
2019-05-12T03:13:14.929Z,0.70
2019-05-12T03:16:25.653Z,0.83
2019-05-12T03:19:34.540Z,0.50
2019-05-12T03:22:44.901Z,0.53
2019-05-12T03:25:54.561Z,0.90
2019-05-12T03:29:01.111Z,0.50
2019-05-12T03:32:08.935Z,0.67
2019-05-12T03:35:17.879Z,0.90
2019-05-12T03:38:27.686Z,0.90
2019-05-12T03:41:35.075Z,1.00
2019-05-12T03:44:44.521Z,1.07
2019-05-12T03:47:54.801Z,1.00
2019-05-12T03:51:01.145Z,0.80
2019-05-12T03:54:08.320Z,0.90
2019-05-12T03:57:15.520Z,1.10
2019-05-12T04:00:24.704Z,1.33
2019-05-12T04:03:34.573Z,1.20
2019-05-12T04:06:41.213Z,1.30
2019-05-12T04:09:49.091Z,1.00
2019-05-12T04:12:56.375Z,0.90
2019-05-12T04:16:05.031Z,0.87
2019-05-12T04:19:14.653Z,0.93
2019-05-12T04:22:24.909Z,0.97
2019-05-12T04:25:47.713Z,0.80
2019-05-12T04:28:40.954Z,0.87
2019-05-12T04:31:48.581Z,0.60
2019-05-12T04:34:55.745Z,0.80
2019-05-12T04:38:04.400Z,0.60
2019-05-12T04:41:14.616Z,0.70
2019-05-12T04:44:24.865Z,0.60
2019-05-12T04:47:34.690Z,0.37
2019-05-12T04:50:40.125Z,0.30
2019-05-12T04:53:47.305Z,0.50
2019-05-12T04:56:55.285Z,0.40
2019-05-12T05:00:05.125Z,0.40
2019-05-12T05:03:14.143Z,0.30
2019-05-12T05:06:21.701Z,0.43
2019-05-12T05:09:29.102Z,0.43
2019-05-12T05:12:36.814Z,0.33
2019-05-12T05:15:44.761Z,0.30
2019-05-12T05:18:53.826Z,0.20
2019-05-12T05:22:01.744Z,0.40
2019-05-12T05:25:09.245Z,0.30
2019-05-12T05:28:16.671Z,0.37
2019-05-12T05:31:24.444Z,0.27
2019-05-12T05:34:34.253Z,0.27
2019-05-12T05:37:44.237Z,0.23
2019-05-12T05:40:54.156Z,0.27
2019-05-12T05:44:03.130Z,0.13
2019-05-12T05:47:10.789Z,0.20
2019-05-12T05:50:23.151Z,0.30
2019-05-12T05:53:59.876Z,0.17
2019-05-12T05:57:07.260Z,0.20
2019-05-12T06:00:22.635Z,0.30
2019-05-12T06:03:28.220Z,0.20
2019-05-12T06:06:35.928Z,0.10
2019-05-12T06:09:44.194Z,0.30
2019-05-12T06:12:54.131Z,0.20
2019-05-12T06:16:04.191Z,0.30
2019-05-12T06:19:13.921Z,0.30
2019-05-12T06:22:23.654Z,0.20
2019-05-12T06:25:45.026Z,0.47
2019-05-12T06:28:41.292Z,0.20
2019-05-12T06:31:49.277Z,0.33
2019-05-12T06:35:01.386Z,0.37
2019-05-12T06:38:06.183Z,0.50
2019-05-12T06:41:20.612Z,0.20
2019-05-12T06:44:24.033Z,0.10
2019-05-12T06:47:34.146Z,0.40
2019-05-12T06:50:41.096Z,0.30
2019-05-12T06:53:48.673Z,0.27
2019-05-12T06:57:16.558Z,0.30
2019-05-12T07:00:05.996Z,0.30
2019-05-12T07:03:19.435Z,0.30
2019-05-12T07:06:24.910Z,0.27
2019-05-12T07:09:35.338Z,0.40
2019-05-12T07:12:57.689Z,0.20
2019-05-12T07:15:54.429Z,0.20
2019-05-12T07:19:07.683Z,0.20
2019-05-12T07:22:19.873Z,0.20
2019-05-12T07:25:22.888Z,0.10
2019-05-12T07:28:35.099Z,0.30
2019-05-12T07:31:40.665Z,0.30
2019-05-12T07:34:48.282Z,0.60
2019-05-12T07:37:57.793Z,0.27
2019-05-12T07:41:09.505Z,0.40
2019-05-12T07:44:22.261Z,0.50
2019-05-12T07:47:29.728Z,0.30
2019-05-12T07:50:37.877Z,0.37
2019-05-12T07:53:54.597Z,0.20
2019-05-12T07:56:54.916Z,0.20
2019-05-12T08:00:03.691Z,0.40
2019-05-12T08:03:16.009Z,0.50
2019-05-12T08:06:21.433Z,0.40
2019-05-12T08:09:32.264Z,0.40
2019-05-12T08:12:38.617Z,0.40
2019-05-12T08:15:50.244Z,0.30
2019-05-12T08:18:55.540Z,0.53
2019-05-12T08:22:04.452Z,0.50
2019-05-12T08:25:13.464Z,0.60
2019-05-12T08:28:27.827Z,0.20
2019-05-12T08:31:33.200Z,0.73
2019-05-12T08:34:43.585Z,0.60
2019-05-12T08:37:50.589Z,0.60
2019-05-12T08:41:00.200Z,0.77
2019-05-12T08:44:07.806Z,0.70
2019-05-12T08:47:15.637Z,0.50
2019-05-12T08:50:31.287Z,2.70
2019-05-12T08:53:33.670Z,2.90
2019-05-12T08:56:41.080Z,1.20
2019-05-12T08:59:48.561Z,1.00
2019-05-12T09:02:56.877Z,0.60
2019-05-12T09:06:09.224Z,0.70
2019-05-12T09:09:14.594Z,0.70
2019-05-12T09:12:23.295Z,0.70
2019-05-12T09:15:30.624Z,0.67
2019-05-12T09:18:39.310Z,0.77
2019-05-12T09:21:46.649Z,0.90
2019-05-12T09:24:58.479Z,0.60
2019-05-12T09:28:03.965Z,1.23
2019-05-12T09:31:13.979Z,6.67
2019-05-12T09:34:20.774Z,3.03
2019-05-12T09:37:30.996Z,1.90
2019-05-12T09:40:37.476Z,1.10
2019-05-12T09:43:48.365Z,1.83
2019-05-12T09:46:53.993Z,1.40
2019-05-12T09:50:04.259Z,1.93
2019-05-12T09:53:11.736Z,1.43
2019-05-12T09:56:19.019Z,2.97
2019-05-12T09:59:26.233Z,2.50
2019-05-12T10:02:33.538Z,2.30
2019-05-12T10:05:41.453Z,1.00
2019-05-12T10:08:49.212Z,1.20
2019-05-12T10:12:00.611Z,1.03
2019-05-12T10:15:07.182Z,1.20
2019-05-12T10:18:15.210Z,1.50
2019-05-12T10:21:23.783Z,2.30
2019-05-12T10:24:40.547Z,1.30
2019-05-12T10:27:44.085Z,1.10
2019-05-12T10:30:55.225Z,2.63
2019-05-12T10:34:18.972Z,1.10
2019-05-12T10:37:29.310Z,1.37
2019-05-12T10:40:36.042Z,1.80
2019-05-12T10:43:48.421Z,1.90
2019-05-12T10:46:55.818Z,2.20
2019-05-12T10:50:04.011Z,1.90
2019-05-12T10:53:15.569Z,1.70
2019-05-12T10:56:20.726Z,1.60
2019-05-12T10:59:33.222Z,2.13
2019-05-12T11:02:37.655Z,1.97
2019-05-12T11:05:45.127Z,2.90
2019-05-12T11:08:54.113Z,2.60
2019-05-12T11:12:03.376Z,2.67
2019-05-12T11:15:13.607Z,2.73
2019-05-12T11:18:26.072Z,2.80
2019-05-12T11:21:33.529Z,2.57
2019-05-12T11:24:40.782Z,1.83
2019-05-12T11:27:48.347Z,1.93
2019-05-12T11:30:55.742Z,2.30
2019-05-12T11:34:04.837Z,2.10
2019-05-12T11:37:13.856Z,2.50
2019-05-12T11:40:21.143Z,3.00
2019-05-12T11:43:29.887Z,3.10
2019-05-12T11:46:37.787Z,3.30
2019-05-12T11:49:45.584Z,2.80
2019-05-12T11:52:53.505Z,2.20
2019-05-12T11:56:02.245Z,2.40
2019-05-12T11:59:10.621Z,2.23
2019-05-12T12:02:20.231Z,2.63
2019-05-12T12:05:28.817Z,2.23
2019-05-12T12:08:37.384Z,3.10
2019-05-12T12:11:44.877Z,3.20
2019-05-12T12:14:53.657Z,3.33
2019-05-12T12:18:03.832Z,3.97
2019-05-12T12:21:10.640Z,3.20
2019-05-12T12:24:21.381Z,3.57
2019-05-12T12:27:27.060Z,3.77
2019-05-12T12:30:34.748Z,3.60
2019-05-12T12:33:46.849Z,3.90
2019-05-12T12:36:54.182Z,3.80
2019-05-12T12:40:01.133Z,3.23
2019-05-12T12:43:08.395Z,3.50
2019-05-12T12:46:24.393Z,4.83
2019-05-12T12:49:33.963Z,6.57
2019-05-12T12:52:46.856Z,3.73
2019-05-12T12:55:53.593Z,3.73
2019-05-12T12:59:09.918Z,3.80
2019-05-12T13:02:11.322Z,2.90
2019-05-12T13:05:19.026Z,3.53
2019-05-12T13:08:27.151Z,2.90
2019-05-12T13:11:35.085Z,3.23
2019-05-12T13:14:44.310Z,3.33
2019-05-12T13:17:52.232Z,3.63
2019-05-12T13:20:59.862Z,4.20
2019-05-12T13:24:07.391Z,3.80
2019-05-12T13:27:19.200Z,4.03
2019-05-12T13:30:24.594Z,5.47
2019-05-12T13:33:33.864Z,4.90
2019-05-12T13:36:43.956Z,5.47
2019-05-12T13:39:57.026Z,5.33
2019-05-12T13:43:00.677Z,5.30
2019-05-12T13:46:08.355Z,5.17
2019-05-12T13:49:16.082Z,5.03
2019-05-12T13:52:26.283Z,5.10
2019-05-12T13:55:34.298Z,5.20
2019-05-12T13:58:43.648Z,5.60
2019-05-12T14:01:53.933Z,4.93
2019-05-12T14:05:07.226Z,4.60
2019-05-12T14:08:14.451Z,5.50
2019-05-12T14:11:23.970Z,4.63
2019-05-12T14:14:31.136Z,5.30
2019-05-12T14:17:40.500Z,4.97
2019-05-12T14:20:50.836Z,5.50
2019-05-12T14:23:57.867Z,5.37
2019-05-12T14:27:05.320Z,4.10
2019-05-12T14:30:14.693Z,5.57
2019-05-12T14:33:24.363Z,5.30
2019-05-12T14:37:04.229Z,5.10
2019-05-12T14:40:01.592Z,5.73
2019-05-12T14:43:10.405Z,5.87
2019-05-12T14:46:18.693Z,4.77
2019-05-12T14:49:30.355Z,5.57
2019-05-12T14:52:35.148Z,5.83
2019-05-12T14:55:42.730Z,5.47
2019-05-12T14:58:55.558Z,5.47
2019-05-12T15:02:03.367Z,5.67
2019-05-12T15:05:11.026Z,5.50
2019-05-12T15:08:21.065Z,5.70
2019-05-12T15:11:28.457Z,5.97
2019-05-12T15:14:37.923Z,5.13
2019-05-12T15:17:44.979Z,5.17
2019-05-12T15:20:54.290Z,5.20
2019-05-12T15:24:03.937Z,4.37
2019-05-12T15:27:13.419Z,4.53
2019-05-12T15:30:25.960Z,4.13
2019-05-12T15:33:33.552Z,4.60
2019-05-12T15:36:52.193Z,4.57
2019-05-12T15:39:54.284Z,4.73
2019-05-12T15:43:05.506Z,4.47
2019-05-12T15:46:13.462Z,4.27
2019-05-12T15:49:26.203Z,4.47
2019-05-12T15:53:06.854Z,4.90
2019-05-12T15:56:22.745Z,4.37
2019-05-12T15:59:58.517Z,5.10
2019-05-12T16:03:06.630Z,5.07
2019-05-12T16:06:15.053Z,4.57
2019-05-12T16:09:23.767Z,4.30
2019-05-12T16:12:34.169Z,4.90
2019-05-12T16:15:40.899Z,5.33
2019-05-12T16:18:50.738Z,4.93
2019-05-12T16:21:58.384Z,4.87
2019-05-12T16:25:06.342Z,6.37
2019-05-12T16:28:22.716Z,5.57
2019-05-12T16:31:24.396Z,6.30
2019-05-12T16:34:38.529Z,6.23
2019-05-12T16:37:43.960Z,6.83
2019-05-12T16:40:53.504Z,6.30
2019-05-12T16:44:07.559Z,5.47
2019-05-12T16:47:13.229Z,5.70
2019-05-12T16:50:27.373Z,5.97
2019-05-12T16:53:30.548Z,5.63
2019-05-12T16:56:38.194Z,6.13
2019-05-12T16:59:45.570Z,5.60
2019-05-12T17:02:57.814Z,6.50
2019-05-12T17:06:03.579Z,7.80
2019-05-12T17:09:13.307Z,7.03
2019-05-12T17:12:23.875Z,6.73
2019-05-12T17:15:29.889Z,5.80
2019-05-12T17:18:37.865Z,7.30
2019-05-12T17:21:49.449Z,5.57
2019-05-12T17:24:54.238Z,6.03
2019-05-12T17:28:03.637Z,5.30
2019-05-12T17:31:11.246Z,5.53
2019-05-12T17:34:18.951Z,5.90
2019-05-12T17:37:26.310Z,5.83
2019-05-12T17:40:34.044Z,5.73
2019-05-12T17:43:51.993Z,6.00
2019-05-12T17:46:54.104Z,6.53
2019-05-12T17:50:06.754Z,6.77
2019-05-12T17:53:13.637Z,6.47
2019-05-12T17:56:25.288Z,7.30
2019-05-12T17:59:30.184Z,6.97
2019-05-12T18:02:37.994Z,7.00
2019-05-12T18:05:48.032Z,6.77
2019-05-12T18:08:55.900Z,6.77
2019-05-12T18:12:04.263Z,7.07
2019-05-12T18:15:15.009Z,6.27
2019-05-12T18:18:31.153Z,6.60
2019-05-12T18:21:34.049Z,7.23
2019-05-12T18:24:49.056Z,7.17
2019-05-12T18:27:51.216Z,6.57
2019-05-12T18:30:58.935Z,5.70
2019-05-12T18:34:06.427Z,5.73
2019-05-12T18:37:14.221Z,5.73
2019-05-12T18:40:24.107Z,5.63
2019-05-12T18:43:31.301Z,5.97
2019-05-12T18:46:44.891Z,4.67
2019-05-12T18:49:50.199Z,5.00
2019-05-12T18:52:57.702Z,4.93
2019-05-12T18:56:10.164Z,5.77
2019-05-12T18:59:16.438Z,5.30
2019-05-12T19:02:28.335Z,4.33
2019-05-12T19:05:34.561Z,4.20
2019-05-12T19:08:42.799Z,4.47
2019-05-12T19:11:50.267Z,3.83
2019-05-12T19:14:57.845Z,5.10
2019-05-12T19:18:05.403Z,4.20
2019-05-12T19:21:16.757Z,4.87
2019-05-12T19:24:22.603Z,4.57
2019-05-12T19:27:30.515Z,4.17
2019-05-12T19:30:38.169Z,4.60
2019-05-12T19:33:53.305Z,4.57
2019-05-12T19:36:55.350Z,4.77
2019-05-12T19:40:11.729Z,4.97
2019-05-12T19:43:14.132Z,5.20
2019-05-12T19:46:24.000Z,4.90
2019-05-12T19:49:45.981Z,4.13
2019-05-12T19:52:41.668Z,4.67
2019-05-12T19:55:49.128Z,4.30
2019-05-12T19:58:57.133Z,4.43
2019-05-12T20:02:04.421Z,4.63
2019-05-12T20:05:16.747Z,4.83
2019-05-12T20:08:21.611Z,4.10
2019-05-12T20:11:31.344Z,4.50
2019-05-12T20:14:38.908Z,3.77
2019-05-12T20:17:48.763Z,4.00
2019-05-12T20:20:55.908Z,3.50
2019-05-12T20:24:03.875Z,3.60
2019-05-12T20:27:17.236Z,3.30
2019-05-12T20:30:21.223Z,3.53
2019-05-12T20:33:28.890Z,3.00
2019-05-12T20:36:36.112Z,3.27
2019-05-12T20:39:44.623Z,3.57
2019-05-12T20:43:07.318Z,4.30
2019-05-12T20:46:01.009Z,3.23
2019-05-12T20:49:12.050Z,3.90
2019-05-12T20:52:18.048Z,4.00
2019-05-12T20:55:29.947Z,3.67
2019-05-12T20:58:41.026Z,4.30
2019-05-12T21:01:44.527Z,3.53
2019-05-12T21:05:00.558Z,4.27
2019-05-12T21:08:03.296Z,3.40
2019-05-12T21:11:10.783Z,3.53
2019-05-12T21:14:18.112Z,3.87
2019-05-12T21:17:39.698Z,4.23
2019-05-12T21:20:35.439Z,4.40
2019-05-12T21:23:45.561Z,4.20
2019-05-12T21:26:54.172Z,4.43
2019-05-12T21:30:09.866Z,4.80
2019-05-12T21:33:11.200Z,4.50
2019-05-12T21:36:24.338Z,4.73
2019-05-12T21:39:29.158Z,4.30
2019-05-12T21:42:36.666Z,4.37
2019-05-12T21:45:44.374Z,4.37
2019-05-12T21:48:53.164Z,4.57
2019-05-12T21:52:04.136Z,4.10
2019-05-12T21:55:13.566Z,4.90
2019-05-12T21:58:20.169Z,4.97
2019-05-12T22:01:27.807Z,4.80
2019-05-12T22:04:41.223Z,5.13
2019-05-12T22:07:45.336Z,6.20
2019-05-12T22:10:54.156Z,6.20
2019-05-12T22:14:04.456Z,5.40
2019-05-12T22:17:13.515Z,5.33
2019-05-12T22:20:20.300Z,5.73
2019-05-12T22:23:28.537Z,5.90
2019-05-12T22:26:39.719Z,5.53
2019-05-12T22:29:45.370Z,5.30
2019-05-12T22:32:54.104Z,5.77
2019-05-12T22:36:06.271Z,5.97
2019-05-12T22:39:11.675Z,5.43
2019-05-12T22:42:21.639Z,5.10
2019-05-12T22:45:28.486Z,5.93
2019-05-12T22:48:40.333Z,5.23
2019-05-12T22:51:46.641Z,6.13
2019-05-12T22:54:54.564Z,5.27
2019-05-12T22:58:02.486Z,5.57
2019-05-12T23:01:09.997Z,4.63
2019-05-12T23:04:17.319Z,5.00
2019-05-12T23:07:29.567Z,5.40
2019-05-12T23:10:34.432Z,5.80
2019-05-12T23:13:42.847Z,5.53
2019-05-12T23:16:50.367Z,5.60
2019-05-12T23:19:58.026Z,4.53
2019-05-12T23:23:09.060Z,5.27
2019-05-12T23:26:14.615Z,4.30
2019-05-12T23:29:29.431Z,4.83
2019-05-12T23:32:31.313Z,4.30
2019-05-12T23:35:39.731Z,4.33
2019-05-12T23:38:53.214Z,4.80
2019-05-12T23:41:56.956Z,4.93
2019-05-12T23:45:04.641Z,4.90
2019-05-12T23:48:14.296Z,4.70
2019-05-12T23:51:23.551Z,4.20
2019-05-12T23:54:31.045Z,4.73
2019-05-12T23:57:38.757Z,4.50
